createdAt,value
2023-03-29T00:01:45.824Z,66.20
2023-03-29T00:04:13.945Z,66.42
2023-03-29T00:06:42.137Z,66.53
2023-03-29T00:09:10.013Z,66.45
2023-03-29T00:11:36.628Z,66.74
2023-03-29T00:14:03.090Z,66.92
2023-03-29T00:16:29.998Z,67.10
2023-03-29T00:18:57.171Z,67.23
2023-03-29T00:21:23.652Z,67.71
2023-03-29T00:23:50.225Z,67.53
2023-03-29T00:26:16.708Z,68.16
2023-03-29T00:28:43.245Z,67.58
2023-03-29T00:31:12.688Z,67.53
2023-03-29T00:33:39.326Z,67.64
2023-03-29T00:36:07.351Z,67.77
2023-03-29T00:38:34.363Z,67.53
2023-03-29T00:41:01.368Z,67.95
2023-03-29T00:43:27.983Z,67.74
2023-03-29T00:45:54.777Z,68.03
2023-03-29T00:48:25.780Z,68.04
2023-03-29T00:50:55.674Z,68.39
2023-03-29T00:53:48.543Z,68.26
2023-03-29T00:56:35.284Z,68.33
2023-03-29T00:59:05.057Z,68.07
2023-03-29T01:01:45.483Z,67.67
2023-03-29T01:04:20.567Z,67.95
2023-03-29T01:06:57.037Z,67.74
2023-03-29T01:09:27.058Z,68.48
2023-03-29T01:11:57.448Z,68.42
2023-03-29T01:14:42.824Z,68.86
2023-03-29T01:17:09.409Z,68.41
2023-03-29T01:19:43.960Z,68.43
2023-03-29T01:22:28.468Z,68.28
2023-03-29T01:25:16.666Z,69.31
2023-03-29T01:28:02.519Z,69.08
2023-03-29T01:30:34.572Z,68.86
2023-03-29T01:33:15.566Z,69.17
2023-03-29T01:35:46.505Z,69.27
2023-03-29T01:38:23.686Z,69.58
2023-03-29T01:40:50.314Z,69.36
2023-03-29T01:43:39.529Z,69.94
2023-03-29T01:46:25.158Z,69.58
2023-03-29T01:48:59.200Z,69.77
2023-03-29T01:51:38.633Z,69.84
2023-03-29T01:54:12.834Z,69.90
2023-03-29T01:56:43.775Z,69.32
2023-03-29T01:59:18.057Z,69.34
2023-03-29T02:01:50.231Z,69.58
2023-03-29T02:04:22.724Z,69.22
2023-03-29T02:06:54.260Z,69.47
2023-03-29T02:09:21.840Z,69.23
2023-03-29T02:11:51.086Z,69.38
2023-03-29T02:14:17.948Z,69.11
2023-03-29T02:16:46.193Z,69.60
2023-03-29T02:19:14.055Z,69.73
2023-03-29T02:21:51.745Z,69.42
2023-03-29T02:24:22.043Z,69.94
2023-03-29T02:26:49.227Z,70.26
2023-03-29T02:29:16.292Z,71.15
2023-03-29T02:31:47.699Z,71.10
2023-03-29T02:34:19.680Z,71.95
2023-03-29T02:36:50.511Z,71.95
2023-03-29T02:39:18.402Z,72.28
2023-03-29T02:41:49.205Z,72.79
2023-03-29T02:44:20.389Z,73.13
2023-03-29T02:46:55.541Z,73.89
2023-03-29T02:49:22.912Z,74.36
2023-03-29T02:51:53.594Z,74.33
2023-03-29T02:54:25.808Z,74.97
2023-03-29T02:56:57.728Z,75.13
2023-03-29T02:59:24.287Z,75.26
2023-03-29T03:01:52.485Z,76.14
2023-03-29T03:04:20.709Z,75.90
2023-03-29T03:06:47.631Z,76.20
2023-03-29T03:09:14.648Z,76.60
2023-03-29T03:11:41.091Z,76.90
2023-03-29T03:14:07.563Z,78.36
2023-03-29T03:16:34.503Z,78.58
2023-03-29T03:19:01.373Z,78.87
2023-03-29T03:21:28.197Z,79.93
2023-03-29T03:23:55.748Z,80.43
2023-03-29T03:26:24.801Z,80.80
2023-03-29T03:28:51.587Z,81.04
2023-03-29T03:31:19.474Z,82.25
2023-03-29T03:33:45.938Z,82.41
2023-03-29T03:36:13.889Z,83.29
2023-03-29T03:38:41.228Z,83.87
2023-03-29T03:41:08.079Z,84.92
2023-03-29T03:43:35.332Z,84.91
2023-03-29T03:46:02.173Z,85.20
2023-03-29T03:48:29.053Z,86.29
2023-03-29T03:50:58.113Z,86.79
2023-03-29T03:53:27.180Z,88.15
2023-03-29T03:55:57.977Z,88.79
2023-03-29T03:58:24.515Z,89.61
2023-03-29T04:00:51.383Z,90.37
2023-03-29T04:03:18.453Z,91.05
2023-03-29T04:05:46.178Z,89.99
2023-03-29T04:08:14.767Z,91.02
2023-03-29T04:10:41.614Z,92.67
2023-03-29T04:13:08.315Z,92.17
2023-03-29T04:15:38.733Z,93.19
2023-03-29T04:18:07.220Z,93.58
2023-03-29T04:20:34.659Z,93.86
2023-03-29T04:23:01.573Z,94.10
2023-03-29T04:25:28.418Z,94.39
2023-03-29T04:27:55.150Z,95.38
2023-03-29T04:30:21.805Z,96.32
2023-03-29T04:32:48.723Z,96.89
2023-03-29T04:35:15.243Z,97.20
2023-03-29T04:37:41.881Z,97.87
2023-03-29T04:40:10.074Z,98.45
2023-03-29T04:42:37.386Z,98.44
2023-03-29T04:45:04.613Z,98.29
2023-03-29T04:47:31.193Z,99.06
2023-03-29T04:49:57.973Z,99.27
2023-03-29T04:52:24.706Z,99.22
2023-03-29T04:54:51.165Z,99.55
2023-03-29T04:57:17.563Z,99.53
2023-03-29T04:59:44.025Z,99.81
2023-03-29T05:02:10.574Z,99.45
2023-03-29T05:04:37.086Z,99.55
2023-03-29T05:07:04.479Z,100.00
2023-03-29T05:09:32.505Z,99.99
2023-03-29T05:12:00.248Z,100.00
2023-03-29T05:14:26.705Z,100.00
2023-03-29T05:16:53.115Z,100.00
2023-03-29T05:19:21.810Z,100.00
2023-03-29T05:21:50.212Z,100.00
2023-03-29T05:24:17.620Z,100.00
2023-03-29T05:26:44.735Z,100.00
2023-03-29T05:29:12.189Z,100.00
2023-03-29T05:31:39.199Z,100.00
2023-03-29T05:34:06.974Z,100.00
2023-03-29T05:36:33.635Z,100.00
2023-03-29T05:39:00.081Z,100.00
2023-03-29T05:41:26.546Z,100.00
2023-03-29T05:43:53.044Z,100.00
2023-03-29T05:46:19.587Z,100.00
2023-03-29T05:48:46.381Z,100.00
2023-03-29T05:51:13.031Z,100.00
2023-03-29T05:53:39.401Z,100.00
2023-03-29T05:56:08.642Z,100.00
2023-03-29T05:58:36.288Z,100.00
2023-03-29T06:01:04.327Z,100.00
2023-03-29T06:03:30.948Z,100.00
2023-03-29T06:06:00.870Z,100.00
2023-03-29T06:08:28.501Z,100.00
2023-03-29T06:11:03.076Z,100.00
2023-03-29T06:13:33.429Z,100.00
2023-03-29T06:16:00.888Z,100.00
2023-03-29T06:18:27.676Z,100.00
2023-03-29T06:20:54.709Z,100.00
2023-03-29T06:23:22.167Z,100.00
2023-03-29T06:25:51.248Z,100.00
2023-03-29T06:28:19.079Z,100.00
2023-03-29T06:30:46.334Z,100.00
2023-03-29T06:33:14.172Z,100.00
2023-03-29T06:35:46.896Z,100.00
2023-03-29T06:38:14.952Z,100.00
2023-03-29T06:40:43.201Z,100.00
2023-03-29T06:43:10.173Z,100.00
2023-03-29T06:45:37.836Z,100.00
2023-03-29T06:48:05.868Z,100.00
2023-03-29T06:50:32.928Z,100.00
2023-03-29T06:52:59.303Z,100.00
2023-03-29T06:55:27.068Z,100.00
2023-03-29T06:57:54.194Z,100.00
2023-03-29T07:00:28.119Z,100.00
2023-03-29T07:02:57.981Z,100.00
2023-03-29T07:05:27.180Z,100.00
2023-03-29T07:07:59.779Z,100.00
2023-03-29T07:10:32.140Z,100.00
2023-03-29T07:13:01.048Z,100.00
2023-03-29T07:15:28.675Z,100.00
2023-03-29T07:17:56.227Z,100.00
2023-03-29T07:20:23.155Z,100.00
2023-03-29T07:22:52.942Z,100.00
2023-03-29T07:25:24.972Z,100.00
2023-03-29T07:27:54.623Z,100.00
2023-03-29T07:30:24.429Z,100.00
2023-03-29T07:32:52.353Z,100.00
2023-03-29T07:35:18.825Z,100.00
2023-03-29T07:37:46.421Z,100.00
2023-03-29T07:40:24.531Z,100.00
2023-03-29T07:42:54.389Z,100.00
2023-03-29T07:45:26.797Z,100.00
2023-03-29T07:47:57.705Z,100.00
2023-03-29T07:50:24.843Z,100.00
2023-03-29T07:52:51.366Z,100.00
2023-03-29T07:55:18.129Z,100.00
2023-03-29T07:57:44.690Z,100.00
2023-03-29T08:00:16.333Z,100.00
2023-03-29T08:02:44.683Z,100.00
2023-03-29T08:05:12.930Z,100.00
2023-03-29T08:07:41.353Z,100.00
2023-03-29T08:10:21.791Z,100.00
2023-03-29T08:12:49.810Z,100.00
2023-03-29T08:15:16.538Z,100.00
2023-03-29T08:17:43.623Z,100.00
2023-03-29T08:20:13.292Z,100.00
2023-03-29T08:22:40.495Z,100.00
2023-03-29T08:25:08.102Z,100.00
2023-03-29T08:27:35.493Z,100.00
2023-03-29T08:30:01.912Z,100.00
2023-03-29T08:32:28.680Z,100.00
2023-03-29T08:34:55.207Z,100.00
2023-03-29T08:37:21.852Z,100.00
2023-03-29T08:39:48.487Z,100.00
2023-03-29T08:42:42.766Z,100.00
2023-03-29T08:45:13.377Z,100.00
2023-03-29T08:48:02.299Z,100.00
2023-03-29T08:50:38.417Z,100.00
2023-03-29T08:53:13.208Z,100.00
2023-03-29T08:55:45.677Z,100.00
2023-03-29T08:58:20.459Z,100.00
2023-03-29T09:00:50.820Z,100.00
2023-03-29T09:03:26.166Z,100.00
2023-03-29T09:06:06.615Z,100.00
2023-03-29T09:08:38.240Z,100.00
2023-03-29T09:11:35.549Z,100.00
2023-03-29T09:14:24.779Z,100.00
2023-03-29T09:17:18.827Z,100.00
2023-03-29T09:20:04.422Z,100.00
2023-03-29T09:22:54.501Z,100.00
2023-03-29T09:25:52.545Z,100.00
2023-03-29T09:28:43.366Z,100.00
2023-03-29T09:31:21.574Z,100.00
2023-03-29T09:34:01.959Z,100.00
2023-03-29T09:36:43.499Z,100.00
2023-03-29T09:39:14.371Z,100.00
2023-03-29T09:41:50.580Z,99.97
2023-03-29T09:44:30.956Z,100.00
2023-03-29T09:47:19.363Z,100.00
2023-03-29T09:49:49.231Z,100.00
2023-03-29T09:52:17.259Z,100.00
2023-03-29T09:54:44.508Z,100.00
2023-03-29T09:57:17.985Z,100.00
2023-03-29T09:59:46.720Z,100.00
2023-03-29T10:02:14.033Z,100.00
2023-03-29T10:04:42.891Z,99.84
2023-03-29T10:07:18.171Z,100.00
2023-03-29T10:09:46.479Z,98.89
2023-03-29T10:12:13.695Z,97.89
2023-03-29T10:14:46.407Z,96.61
2023-03-29T10:17:21.729Z,96.09
2023-03-29T10:20:00.359Z,97.27
2023-03-29T10:22:37.830Z,96.41
2023-03-29T10:25:09.326Z,96.09
2023-03-29T10:27:36.109Z,98.66
2023-03-29T10:30:12.906Z,95.71
2023-03-29T10:32:40.586Z,95.14
2023-03-29T10:35:19.075Z,94.97
2023-03-29T10:37:50.357Z,95.21
2023-03-29T10:40:25.695Z,96.50
2023-03-29T10:42:53.938Z,94.54
2023-03-29T10:45:35.551Z,93.32
2023-03-29T10:48:06.821Z,94.27
2023-03-29T10:50:36.188Z,95.77
2023-03-29T10:53:04.145Z,96.07
2023-03-29T10:55:37.253Z,94.59
2023-03-29T10:58:23.604Z,92.76
2023-03-29T11:00:56.288Z,94.96
2023-03-29T11:03:40.308Z,94.35
2023-03-29T11:06:22.351Z,92.95
2023-03-29T11:08:59.240Z,93.34
2023-03-29T11:11:49.305Z,92.78
2023-03-29T11:14:36.055Z,91.57
2023-03-29T11:17:21.458Z,92.59
2023-03-29T11:20:05.373Z,91.66
2023-03-29T11:22:49.377Z,90.58
2023-03-29T11:26:02.504Z,90.16
2023-03-29T11:28:54.543Z,91.72
2023-03-29T11:31:27.761Z,90.95
2023-03-29T11:34:31.610Z,89.12
2023-03-29T11:37:36.412Z,88.35
2023-03-29T11:40:06.939Z,87.92
2023-03-29T11:42:38.325Z,89.09
2023-03-29T11:45:06.069Z,88.62
2023-03-29T11:47:36.611Z,88.67
2023-03-29T11:50:25.455Z,89.89
2023-03-29T11:52:58.800Z,88.87
2023-03-29T11:55:27.929Z,90.79
2023-03-29T11:58:17.520Z,90.22
2023-03-29T12:00:58.087Z,90.03
2023-03-29T12:03:47.306Z,89.43
2023-03-29T12:06:32.445Z,90.04
2023-03-29T12:09:16.715Z,89.47
2023-03-29T12:11:52.949Z,89.18
2023-03-29T12:14:39.015Z,88.33
2023-03-29T12:17:12.508Z,88.71
2023-03-29T12:19:47.409Z,89.59
2023-03-29T12:22:13.789Z,88.45
2023-03-29T12:24:42.991Z,88.21
2023-03-29T12:27:19.814Z,88.00
2023-03-29T12:30:18.559Z,88.70
2023-03-29T12:33:15.298Z,88.10
2023-03-29T12:36:04.493Z,87.98
2023-03-29T12:38:32.822Z,87.71
2023-03-29T12:41:02.289Z,87.98
2023-03-29T12:43:37.653Z,88.03
2023-03-29T12:46:10.049Z,87.86
2023-03-29T12:48:39.356Z,88.10
2023-03-29T12:51:14.462Z,88.02
2023-03-29T12:53:45.069Z,88.19
2023-03-29T12:56:19.575Z,87.85
2023-03-29T12:59:07.040Z,87.61
2023-03-29T13:01:41.347Z,87.27
2023-03-29T13:04:18.437Z,87.63
2023-03-29T13:07:03.381Z,87.78
2023-03-29T13:09:31.201Z,88.44
2023-03-29T13:12:09.642Z,88.41
2023-03-29T13:14:42.557Z,88.68
2023-03-29T13:17:20.143Z,88.10
2023-03-29T13:19:52.554Z,87.67
2023-03-29T13:22:44.214Z,87.24
2023-03-29T13:25:32.535Z,87.28
2023-03-29T13:28:24.094Z,85.76
2023-03-29T13:31:18.865Z,86.92
2023-03-29T13:34:02.109Z,87.07
2023-03-29T13:36:53.597Z,86.22
2023-03-29T13:39:24.438Z,86.83
2023-03-29T13:41:53.463Z,85.90
2023-03-29T13:44:22.888Z,85.99
2023-03-29T13:47:16.454Z,86.49
2023-03-29T13:49:50.384Z,84.56
2023-03-29T13:52:26.769Z,85.79
2023-03-29T13:55:04.099Z,86.18
2023-03-29T13:57:39.494Z,84.67
2023-03-29T14:00:36.787Z,84.36
2023-03-29T14:03:09.441Z,84.82
2023-03-29T14:05:39.757Z,84.22
2023-03-29T14:08:25.381Z,84.40
2023-03-29T14:10:53.567Z,83.92
2023-03-29T14:13:23.922Z,83.04
2023-03-29T14:15:55.189Z,82.77
2023-03-29T14:18:25.507Z,83.17
2023-03-29T14:20:55.053Z,83.07
2023-03-29T14:23:24.462Z,82.70
2023-03-29T14:25:51.134Z,83.26
2023-03-29T14:28:29.023Z,83.37
2023-03-29T14:30:56.238Z,82.64
2023-03-29T14:33:27.939Z,82.54
2023-03-29T14:36:00.131Z,83.35
2023-03-29T14:38:27.390Z,83.88
2023-03-29T14:40:58.616Z,83.41
2023-03-29T14:43:29.773Z,83.44
2023-03-29T14:45:57.338Z,83.38
2023-03-29T14:48:24.899Z,83.54
2023-03-29T14:50:51.667Z,83.01
2023-03-29T14:53:23.377Z,83.28
2023-03-29T14:55:52.432Z,83.25
2023-03-29T14:58:32.695Z,83.36
2023-03-29T15:01:14.746Z,83.35
2023-03-29T15:03:54.192Z,84.05
2023-03-29T15:06:22.910Z,82.85
2023-03-29T15:09:03.621Z,82.59
2023-03-29T15:11:32.890Z,81.87
2023-03-29T15:14:08.546Z,82.00
2023-03-29T15:16:40.478Z,82.08
2023-03-29T15:19:07.204Z,81.89
2023-03-29T15:21:35.657Z,82.43
2023-03-29T15:24:03.999Z,81.92
2023-03-29T15:26:33.953Z,81.52
2023-03-29T15:29:09.157Z,82.22
2023-03-29T15:31:38.582Z,81.91
2023-03-29T15:34:13.315Z,81.65
2023-03-29T15:36:42.533Z,81.32
2023-03-29T15:39:13.119Z,81.82
2023-03-29T15:41:40.468Z,81.68
2023-03-29T15:44:07.160Z,81.68
2023-03-29T15:46:33.793Z,81.02
2023-03-29T15:49:00.394Z,80.81
2023-03-29T15:51:26.988Z,80.61
2023-03-29T15:53:53.382Z,80.04
2023-03-29T15:56:23.249Z,79.52
2023-03-29T15:58:49.861Z,79.13
2023-03-29T16:01:33.634Z,78.89
2023-03-29T16:04:01.832Z,79.29
2023-03-29T16:06:28.564Z,79.31
2023-03-29T16:08:57.238Z,79.88
2023-03-29T16:11:24.200Z,79.64
2023-03-29T16:13:51.359Z,80.03
2023-03-29T16:16:18.114Z,79.30
2023-03-29T16:18:44.635Z,79.88
2023-03-29T16:21:14.233Z,80.20
2023-03-29T16:23:41.662Z,80.02
2023-03-29T16:26:09.233Z,80.25
2023-03-29T16:28:36.895Z,80.71
2023-03-29T16:31:04.759Z,80.57
2023-03-29T16:33:31.145Z,80.78
2023-03-29T16:35:57.578Z,81.11
2023-03-29T16:38:24.360Z,80.95
2023-03-29T16:40:50.793Z,81.08
2023-03-29T16:43:18.601Z,81.41
2023-03-29T16:45:45.399Z,81.49
2023-03-29T16:48:17.960Z,81.78
2023-03-29T16:50:45.286Z,81.87
2023-03-29T16:53:11.722Z,82.10
2023-03-29T16:55:38.168Z,81.95
2023-03-29T16:58:05.478Z,81.96
2023-03-29T17:00:33.165Z,82.10
2023-03-29T17:03:02.600Z,81.91
2023-03-29T17:05:29.229Z,82.04
2023-03-29T17:07:56.207Z,82.27
2023-03-29T17:10:23.305Z,82.41
2023-03-29T17:12:49.805Z,82.45
2023-03-29T17:15:17.274Z,82.73
2023-03-29T17:17:43.677Z,82.89
2023-03-29T17:20:12.220Z,82.47
2023-03-29T17:22:40.272Z,82.56
2023-03-29T17:25:07.999Z,82.75
2023-03-29T17:27:35.638Z,82.77
2023-03-29T17:30:02.118Z,82.75
2023-03-29T17:32:28.604Z,83.08
2023-03-29T17:34:55.231Z,83.09
2023-03-29T17:37:22.798Z,82.94
2023-03-29T17:39:49.265Z,82.93
2023-03-29T17:42:17.192Z,83.45
2023-03-29T17:44:43.634Z,83.32
2023-03-29T17:47:10.111Z,83.55
2023-03-29T17:49:36.529Z,83.27
2023-03-29T17:52:04.371Z,83.35
2023-03-29T17:54:31.119Z,83.45
2023-03-29T17:56:57.826Z,83.29
2023-03-29T17:59:25.723Z,83.56
2023-03-29T18:01:52.157Z,83.71
2023-03-29T18:04:18.541Z,83.78
2023-03-29T18:06:45.649Z,83.62
2023-03-29T18:09:13.087Z,84.25
2023-03-29T18:11:39.472Z,84.27
2023-03-29T18:14:05.965Z,84.40
2023-03-29T18:16:32.474Z,84.50
2023-03-29T18:18:58.997Z,84.51
2023-03-29T18:21:26.247Z,84.82
2023-03-29T18:23:55.523Z,84.99
2023-03-29T18:26:23.408Z,84.95
2023-03-29T18:28:50.713Z,85.45
2023-03-29T18:31:19.577Z,85.34
2023-03-29T18:33:46.806Z,85.68
2023-03-29T18:36:13.841Z,85.56
2023-03-29T18:38:43.067Z,85.94
2023-03-29T18:41:12.273Z,86.12
2023-03-29T18:43:40.704Z,86.04
2023-03-29T18:46:08.288Z,86.87
2023-03-29T18:48:41.877Z,86.98
2023-03-29T18:51:10.846Z,86.73
2023-03-29T18:53:41.076Z,87.04
2023-03-29T18:56:08.007Z,87.09
2023-03-29T18:58:34.728Z,87.21
2023-03-29T19:01:05.130Z,87.29
2023-03-29T19:03:35.014Z,87.30
2023-03-29T19:06:02.982Z,87.41
2023-03-29T19:08:29.723Z,87.58
2023-03-29T19:11:04.728Z,87.36
2023-03-29T19:13:31.613Z,87.75
2023-03-29T19:15:58.121Z,87.64
2023-03-29T19:18:25.487Z,88.18
2023-03-29T19:20:54.037Z,88.15
2023-03-29T19:23:22.213Z,88.83
2023-03-29T19:25:53.787Z,89.38
2023-03-29T19:28:20.621Z,90.51
2023-03-29T19:30:47.384Z,91.90
2023-03-29T19:33:14.534Z,92.18
2023-03-29T19:35:41.481Z,92.65
2023-03-29T19:38:08.083Z,92.71
2023-03-29T19:40:35.104Z,93.36
2023-03-29T19:43:01.507Z,93.07
2023-03-29T19:45:28.329Z,91.94
2023-03-29T19:47:55.555Z,91.33
2023-03-29T19:50:23.136Z,92.16
2023-03-29T19:52:49.877Z,92.74
2023-03-29T19:55:16.538Z,92.97
2023-03-29T19:57:43.286Z,92.49
2023-03-29T20:00:14.805Z,92.84
2023-03-29T20:02:42.550Z,93.25
2023-03-29T20:05:09.422Z,93.14
2023-03-29T20:07:36.442Z,93.47
2023-03-29T20:10:03.048Z,93.48
2023-03-29T20:12:29.429Z,94.34
2023-03-29T20:14:55.852Z,93.90
2023-03-29T20:17:22.244Z,93.63
2023-03-29T20:19:48.654Z,93.92
2023-03-29T20:22:15.026Z,93.77
2023-03-29T20:24:41.442Z,93.71
2023-03-29T20:27:08.597Z,93.76
2023-03-29T20:29:35.500Z,94.33
2023-03-29T20:32:02.152Z,94.39
2023-03-29T20:34:29.190Z,94.61
2023-03-29T20:37:00.587Z,94.72
2023-03-29T20:39:28.308Z,95.14
2023-03-29T20:41:54.746Z,94.96
2023-03-29T20:44:26.409Z,95.15
2023-03-29T20:47:06.616Z,95.06
2023-03-29T20:49:39.109Z,95.33
2023-03-29T20:52:10.628Z,95.30
2023-03-29T20:54:37.321Z,95.63
2023-03-29T20:57:05.071Z,95.10
2023-03-29T20:59:31.536Z,95.81
2023-03-29T21:02:00.058Z,95.86
2023-03-29T21:04:28.230Z,95.39
2023-03-29T21:06:56.068Z,95.34
2023-03-29T21:09:23.820Z,95.88
2023-03-29T21:11:50.734Z,95.87
2023-03-29T21:14:22.985Z,96.03
2023-03-29T21:16:50.204Z,96.01
2023-03-29T21:19:16.908Z,96.50
2023-03-29T21:21:44.920Z,96.31
2023-03-29T21:24:13.704Z,97.10
2023-03-29T21:26:41.278Z,97.37
2023-03-29T21:29:08.018Z,98.07
2023-03-29T21:31:34.918Z,98.08
2023-03-29T21:34:01.375Z,98.98
2023-03-29T21:36:28.007Z,99.39
2023-03-29T21:38:54.683Z,100.00
2023-03-29T21:41:21.865Z,99.52
2023-03-29T21:43:48.323Z,100.00
2023-03-29T21:46:15.164Z,100.00
2023-03-29T21:48:41.829Z,100.00
2023-03-29T21:51:08.716Z,99.90
2023-03-29T21:53:35.290Z,99.98
2023-03-29T21:56:01.692Z,99.43
2023-03-29T21:58:28.083Z,100.00
2023-03-29T22:00:56.162Z,100.00
2023-03-29T22:03:23.043Z,99.67
2023-03-29T22:06:01.742Z,100.00
2023-03-29T22:08:28.905Z,99.67
2023-03-29T22:10:57.007Z,100.00
2023-03-29T22:13:25.288Z,100.00
2023-03-29T22:15:59.480Z,100.00
2023-03-29T22:18:42.282Z,100.00
2023-03-29T22:21:22.435Z,100.00
2023-03-29T22:23:50.885Z,100.00
2023-03-29T22:26:20.000Z,100.00
2023-03-29T22:28:46.404Z,100.00
2023-03-29T22:31:19.949Z,100.00
2023-03-29T22:33:46.638Z,100.00
2023-03-29T22:36:18.097Z,100.00
2023-03-29T22:38:46.063Z,100.00
2023-03-29T22:41:13.748Z,100.00
2023-03-29T22:43:41.026Z,100.00
2023-03-29T22:46:09.587Z,100.00
2023-03-29T22:48:36.303Z,100.00
2023-03-29T22:51:03.108Z,100.00
2023-03-29T22:53:30.056Z,100.00
2023-03-29T22:55:56.490Z,100.00
2023-03-29T22:58:23.299Z,100.00
2023-03-29T23:00:49.752Z,100.00
2023-03-29T23:03:16.869Z,100.00
2023-03-29T23:05:50.259Z,100.00
2023-03-29T23:08:17.157Z,100.00
2023-03-29T23:10:46.111Z,100.00
2023-03-29T23:13:13.888Z,100.00
2023-03-29T23:15:47.233Z,100.00
2023-03-29T23:18:18.469Z,100.00
2023-03-29T23:20:47.107Z,100.00
2023-03-29T23:23:15.700Z,100.00
2023-03-29T23:25:47.444Z,100.00
2023-03-29T23:28:15.891Z,100.00
2023-03-29T23:30:42.975Z,100.00
2023-03-29T23:33:10.510Z,100.00
2023-03-29T23:35:37.427Z,100.00
2023-03-29T23:38:05.462Z,100.00
2023-03-29T23:40:33.149Z,100.00
2023-03-29T23:42:59.927Z,100.00
2023-03-29T23:45:27.982Z,100.00
2023-03-29T23:47:55.220Z,100.00
2023-03-29T23:50:22.584Z,100.00
2023-03-29T23:52:51.770Z,100.00
2023-03-29T23:55:18.617Z,100.00
2023-03-29T23:57:45.044Z,100.00
